Deer Park, Illinois
Current Conditions -  °F | °C
As of 3:52 PM on Thursday 18 Dec 2014 (Local Time) from KPWK Reporting Station
Overcast Overcast  
Wind Chill: 22°   Ceiling: 2700
Heat Index: 28°   Visibility: 10mi
Dew Point: 18°   Wind: 6mph
Humidity: 66%   Direction: 310°NW
Pressure: 30.25"   Gusts: NA
Location:  42.1512°N, 88.1636°W
Report Text: KPWK 182152Z 31005KT 10SM OVC027 M02/M08 A3025 RMK AO2 SLP252 T10221078
Loading
Personal Weather Stations






























Interactive Weather Map New forecast layout! Learn more

10-Day Weather Forecast

Advertisements
Track Severe Weather on mobile